createdAt,value
2018-10-11T00:01:24.403Z,14.53
2018-10-11T00:06:29.533Z,14.63
2018-10-11T00:11:33.755Z,14.65
2018-10-11T00:16:38.472Z,14.30
2018-10-11T00:21:44.975Z,14.45
2018-10-11T00:26:49.431Z,14.90
2018-10-11T00:31:53.824Z,14.55
2018-10-11T00:36:58.103Z,14.43
2018-10-11T00:42:02.572Z,14.70
2018-10-11T00:47:12.891Z,14.87
2018-10-11T00:52:19.393Z,14.60
2018-10-11T00:57:24.329Z,14.73
2018-10-11T01:02:29.283Z,14.50
2018-10-11T01:07:34.923Z,14.70
2018-10-11T01:17:57.439Z,16.07
2018-10-11T01:23:01.756Z,15.85
2018-10-11T01:28:06.293Z,15.78
2018-10-11T01:33:11.748Z,15.23
2018-10-11T01:38:16.254Z,15.30
2018-10-11T01:43:21.341Z,16.00
2018-10-11T01:48:25.883Z,15.93
2018-10-11T01:53:31.730Z,14.67
2018-10-11T02:03:52.789Z,14.87
2018-10-11T02:14:14.889Z,14.47
2018-10-11T02:24:38.785Z,15.10
2018-10-11T02:29:45.148Z,14.70
2018-10-11T02:40:04.128Z,15.83
2018-10-11T02:50:25.461Z,14.80
2018-10-11T03:00:44.032Z,14.67
2018-10-11T03:05:49.869Z,16.50
2018-10-11T03:10:55.894Z,15.50
2018-10-11T03:16:01.087Z,16.10
2018-10-11T03:26:20.416Z,15.47
2018-10-11T03:31:25.083Z,16.00
2018-10-11T03:41:44.875Z,17.10
2018-10-11T03:46:50.240Z,15.60
2018-10-11T03:51:55.952Z,15.70
2018-10-11T04:02:15.628Z,16.97
2018-10-11T04:12:35.282Z,16.07
2018-10-11T04:17:40.541Z,16.37
2018-10-11T04:22:45.277Z,16.97
2018-10-11T04:28:00.464Z,16.47
2018-10-11T04:33:05.543Z,17.37
2018-10-11T04:38:11.945Z,16.30
2018-10-11T04:43:18.038Z,17.47
2018-10-11T04:53:39.439Z,15.60
2018-10-11T04:58:45.107Z,16.87
2018-10-11T05:03:51.981Z,16.87
2018-10-11T05:08:56.247Z,16.77
2018-10-11T05:14:00.757Z,17.67
2018-10-11T05:19:05.439Z,16.43
2018-10-11T05:24:09.726Z,16.90
2018-10-11T05:29:14.020Z,16.90
2018-10-11T05:34:18.254Z,16.33
2018-10-11T05:39:23.350Z,16.93
2018-10-11T05:44:27.769Z,16.63
2018-10-11T05:49:32.057Z,17.57
2018-10-11T05:54:36.336Z,16.50
2018-10-11T05:59:40.630Z,15.23
2018-10-11T06:04:44.881Z,15.73
2018-10-11T06:09:49.369Z,16.50
2018-10-11T06:14:53.656Z,16.00
2018-10-11T06:19:57.910Z,16.20
2018-10-11T06:25:02.099Z,16.13
2018-10-11T06:30:06.372Z,16.30
2018-10-11T06:35:10.656Z,16.13
2018-10-11T06:40:15.085Z,16.40
2018-10-11T06:45:19.499Z,15.40
2018-10-11T06:50:23.932Z,15.30
2018-10-11T06:55:28.141Z,14.87
2018-10-11T07:00:32.413Z,14.93
2018-10-11T07:05:36.979Z,15.00
2018-10-11T07:10:41.768Z,14.77
2018-10-11T07:15:46.113Z,14.70
2018-10-11T07:20:50.536Z,14.27
2018-10-11T07:25:54.961Z,13.27
2018-10-11T07:30:59.443Z,13.80
2018-10-11T07:36:03.930Z,13.13
2018-10-11T07:41:08.206Z,13.97
2018-10-11T07:46:12.674Z,13.23
2018-10-11T07:51:17.128Z,14.33
2018-10-11T07:56:22.163Z,13.93
2018-10-11T08:01:26.554Z,14.17
2018-10-11T08:11:46.188Z,13.27
2018-10-11T08:16:51.088Z,13.47
2018-10-11T08:21:55.283Z,14.63
2018-10-11T08:27:04.950Z,14.70
2018-10-11T08:32:09.370Z,14.20
2018-10-11T08:37:13.675Z,12.78
2018-10-11T08:42:18.075Z,13.60
2018-10-11T08:47:22.801Z,12.67
2018-10-11T08:52:27.342Z,12.63
2018-10-11T08:57:32.190Z,12.07
2018-10-11T09:02:36.927Z,11.97
2018-10-11T09:07:41.576Z,11.47
2018-10-11T09:12:45.971Z,10.30
2018-10-11T09:17:50.257Z,10.20
2018-10-11T09:22:54.682Z,9.93
2018-10-11T09:27:59.358Z,9.60
2018-10-11T09:33:03.621Z,9.30
2018-10-11T09:38:08.647Z,8.68
2018-10-11T09:43:13.646Z,8.40
2018-10-11T09:48:19.215Z,8.30
2018-10-11T09:53:23.894Z,7.90
2018-10-11T09:58:28.439Z,8.05
2018-10-11T10:03:33.389Z,7.90
2018-10-11T10:08:37.651Z,8.43
2018-10-11T10:13:42.439Z,8.07
2018-10-11T10:18:47.021Z,8.68
2018-10-11T10:23:51.353Z,8.95
2018-10-11T10:28:55.795Z,9.17
2018-10-11T10:34:00.415Z,10.00
2018-10-11T10:39:06.358Z,9.70
2018-10-11T10:44:10.947Z,9.57
2018-10-11T10:49:15.221Z,9.83
2018-10-11T10:54:23.289Z,9.73
2018-10-11T10:59:27.663Z,9.47
2018-10-11T11:04:31.993Z,9.60
2018-10-11T13:26:28.100Z,7.60
2018-10-11T13:31:32.403Z,7.87
2018-10-11T13:36:37.215Z,7.50
2018-10-11T13:41:41.939Z,7.57
2018-10-11T13:46:46.736Z,7.22
2018-10-11T13:51:51.011Z,7.80
2018-10-11T13:56:58.797Z,8.00
2018-10-11T14:02:00.396Z,7.87
2018-10-11T14:07:04.989Z,7.80
2018-10-11T14:12:09.261Z,7.65
2018-10-11T14:17:13.704Z,7.83
2018-10-11T14:22:18.340Z,8.23
2018-10-11T14:27:23.007Z,8.43
2018-10-11T14:32:27.800Z,8.20
2018-10-11T14:37:32.560Z,8.43
2018-10-11T14:42:37.946Z,9.97
2018-10-11T14:47:42.236Z,8.25
2018-10-11T14:52:46.589Z,9.30
2018-10-11T14:57:51.108Z,9.10
2018-10-11T15:02:55.635Z,11.50
2018-10-11T15:08:00.290Z,9.03
2018-10-11T15:13:04.704Z,9.45
2018-10-11T15:18:09.416Z,8.97
2018-10-11T15:23:13.747Z,9.70
2018-10-11T15:28:18.092Z,8.93
2018-10-11T15:33:22.907Z,8.83
2018-10-11T15:38:27.534Z,9.05
2018-10-11T15:43:32.086Z,9.48
2018-10-11T15:48:36.490Z,9.27
2018-10-11T15:53:41.167Z,8.83
2018-10-11T15:58:45.790Z,10.03
2018-10-11T16:03:50.360Z,9.73
2018-10-11T16:08:55.400Z,9.00
2018-10-11T16:14:03.003Z,9.70
2018-10-11T16:19:09.022Z,12.83
2018-10-11T16:24:13.846Z,8.73
2018-10-11T16:30:47.338Z,13.50
2018-10-11T16:35:52.698Z,9.40
2018-10-11T16:40:57.567Z,9.03
2018-10-11T16:46:02.311Z,9.07
2018-10-11T16:51:06.902Z,9.37
2018-10-11T16:56:12.204Z,9.20
2018-10-11T17:01:16.951Z,9.45
2018-10-11T17:06:21.596Z,9.90
2018-10-11T17:11:26.258Z,9.55
2018-10-11T17:16:30.929Z,10.20
2018-10-11T17:21:35.787Z,10.45
2018-10-11T17:26:40.224Z,10.73
2018-10-11T17:31:44.943Z,9.75
2018-10-11T17:36:49.757Z,10.30
2018-10-11T17:41:54.233Z,10.32
2018-10-11T17:46:59.566Z,10.65
2018-10-11T17:52:04.029Z,11.20
2018-10-11T17:57:08.950Z,10.47
2018-10-11T18:02:15.829Z,11.60
2018-10-11T18:07:20.598Z,11.05
2018-10-11T18:12:26.039Z,11.65
2018-10-11T18:17:32.507Z,12.10
2018-10-11T18:22:37.083Z,11.10
2018-10-11T18:27:41.537Z,11.17
2018-10-11T18:32:46.291Z,12.17
2018-10-11T18:37:50.706Z,13.87
2018-10-11T18:42:55.750Z,11.47
2018-10-11T18:48:00.571Z,11.88
2018-10-11T18:53:05.279Z,17.20
2018-10-11T18:58:14.832Z,11.70
2018-10-11T19:03:19.525Z,11.50
2018-10-11T19:08:23.985Z,11.78
2018-10-11T19:13:29.171Z,16.80
2018-10-11T19:18:33.776Z,14.07
2018-10-11T19:23:38.736Z,11.78
2018-10-11T19:28:43.055Z,12.15
2018-10-11T19:33:47.504Z,11.95
2018-10-11T19:38:52.027Z,12.35
2018-10-11T19:43:56.477Z,12.90
2018-10-11T19:49:01.438Z,12.90
2018-10-11T19:54:05.675Z,13.93
2018-10-11T19:59:15.235Z,13.48
2018-10-11T20:04:19.961Z,13.00
2018-10-11T20:09:29.296Z,12.70
2018-10-11T20:14:34.300Z,12.78
2018-10-11T20:19:52.092Z,12.58
2018-10-11T20:24:56.544Z,12.28
2018-10-11T20:30:00.854Z,10.70
2018-10-11T20:35:05.468Z,12.37
2018-10-11T20:40:09.953Z,12.70
2018-10-11T20:45:14.520Z,12.70
2018-10-11T20:50:19.093Z,12.90
2018-10-11T20:55:23.844Z,13.47
2018-10-11T21:00:28.465Z,13.33
2018-10-11T21:05:32.681Z,12.73
2018-10-11T21:10:36.979Z,13.18
2018-10-11T21:15:41.489Z,14.00
2018-10-11T21:20:45.875Z,13.07
2018-10-11T21:25:50.447Z,12.98
2018-10-11T21:30:54.623Z,12.55
2018-10-11T21:35:58.816Z,12.53
2018-10-11T21:41:03.075Z,12.18
2018-10-11T21:46:07.307Z,12.30
2018-10-11T21:51:11.747Z,13.03
2018-10-11T21:56:16.042Z,13.87
2018-10-11T22:01:22.638Z,13.62
2018-10-11T22:06:27.304Z,12.33
2018-10-11T22:11:32.320Z,12.97
2018-10-11T22:16:36.484Z,12.37
2018-10-11T22:21:40.613Z,12.47
2018-10-11T22:26:44.750Z,12.63
2018-10-11T22:31:48.980Z,13.40
2018-10-11T22:36:53.268Z,13.10
2018-10-11T22:41:57.459Z,13.65
2018-10-11T22:47:01.688Z,12.97
2018-10-11T22:52:06.354Z,16.40
2018-10-11T22:57:10.767Z,15.10
2018-10-11T23:02:15.023Z,14.47
2018-10-11T23:07:19.224Z,15.30
2018-10-11T23:12:23.688Z,15.60
2018-10-11T23:17:27.967Z,15.83
2018-10-11T23:22:32.233Z,16.00
2018-10-11T23:27:36.410Z,17.30
2018-10-11T23:32:41.336Z,15.98
2018-10-11T23:37:45.487Z,14.27
2018-10-11T23:42:49.660Z,14.60
2018-10-11T23:47:54.013Z,14.30
2018-10-11T23:52:58.155Z,15.63
2018-10-11T23:58:03.022Z,14.90
